createdAt,value
2022-12-13T00:00:34.812Z,2.27
2022-12-13T00:03:24.902Z,2.31
2022-12-13T00:05:57.224Z,2.28
2022-12-13T00:08:29.706Z,2.27
2022-12-13T00:11:04.088Z,2.20
2022-12-13T00:13:36.712Z,2.24
2022-12-13T00:16:08.566Z,2.25
2022-12-13T00:18:40.959Z,2.22
2022-12-13T00:21:16.525Z,2.20
2022-12-13T00:23:49.345Z,2.17
2022-12-13T00:26:23.872Z,2.11
2022-12-13T00:28:56.192Z,2.06
2022-12-13T00:34:22.183Z,2.03
2022-12-13T00:36:54.436Z,2.03
2022-12-13T00:39:26.900Z,2.01
2022-12-13T00:41:59.320Z,1.93
2022-12-13T00:44:32.669Z,1.84
2022-12-13T00:47:22.914Z,1.84
2022-12-13T00:49:55.328Z,1.74
2022-12-13T00:52:27.663Z,1.69
2022-12-13T00:55:00.110Z,1.70
2022-12-13T00:57:51.017Z,1.77
2022-12-13T01:00:23.489Z,1.80
2022-12-13T01:02:54.165Z,1.74
2022-12-13T01:06:03.828Z,1.67
2022-12-13T01:08:19.854Z,1.59
2022-12-13T01:10:50.603Z,1.54
2022-12-13T01:13:22.955Z,1.46
2022-12-13T01:15:55.368Z,1.39
2022-12-13T01:18:27.691Z,1.38
2022-12-13T01:21:04.926Z,1.31
2022-12-13T01:23:38.089Z,1.25
2022-12-13T01:26:11.775Z,1.24
2022-12-13T01:28:44.132Z,1.26
2022-12-13T01:31:19.244Z,1.27
2022-12-13T01:33:51.726Z,1.22
2022-12-13T01:36:27.382Z,1.19
2022-12-13T01:39:00.723Z,1.21
2022-12-13T01:41:33.839Z,1.19
2022-12-13T01:44:06.996Z,1.13
2022-12-13T01:46:39.340Z,1.10
2022-12-13T01:49:19.763Z,1.05
2022-12-13T01:51:54.817Z,1.02
2022-12-13T01:54:33.693Z,1.04
2022-12-13T01:57:08.268Z,1.10
2022-12-13T01:59:41.972Z,1.14
2022-12-13T02:02:16.345Z,1.18
2022-12-13T02:04:54.628Z,1.19
2022-12-13T02:07:30.517Z,1.21
2022-12-13T02:10:05.524Z,1.20
2022-12-13T02:12:40.294Z,1.25
2022-12-13T02:15:16.505Z,1.38
2022-12-13T02:18:22.847Z,1.46
2022-12-13T02:21:15.010Z,1.53
2022-12-13T02:24:22.670Z,1.56
2022-12-13T02:33:30.522Z,1.34
2022-12-13T02:36:12.712Z,1.29
2022-12-13T02:38:52.448Z,1.21
2022-12-13T02:41:29.312Z,1.23
2022-12-13T02:44:06.069Z,1.16
2022-12-13T02:46:57.073Z,1.06
2022-12-13T02:49:31.580Z,1.02
2022-12-13T02:52:04.439Z,0.98
2022-12-13T02:54:36.720Z,0.95
2022-12-13T02:57:28.993Z,0.93
2022-12-13T03:00:05.540Z,0.91
2022-12-13T03:02:46.715Z,0.86
2022-12-13T03:05:43.781Z,0.90
2022-12-13T03:08:45.346Z,0.89
2022-12-13T03:11:20.046Z,0.88
2022-12-13T03:13:56.639Z,0.90
2022-12-13T03:16:34.037Z,0.93
2022-12-13T03:19:08.661Z,1.01
2022-12-13T03:21:47.663Z,1.08
2022-12-13T03:24:22.676Z,1.07
2022-12-13T03:26:55.338Z,0.96
2022-12-13T03:29:27.798Z,0.90
2022-12-13T03:32:00.112Z,0.87
2022-12-13T03:34:44.000Z,0.79
2022-12-13T03:37:17.876Z,0.71
2022-12-13T03:39:50.230Z,0.68
2022-12-13T03:42:22.660Z,0.64
2022-12-13T03:44:54.931Z,0.60
2022-12-13T03:47:27.201Z,0.63
2022-12-13T03:49:59.626Z,0.73
2022-12-13T03:52:52.353Z,0.83
2022-12-13T03:55:24.738Z,0.89
2022-12-13T03:57:57.222Z,0.90
2022-12-13T04:00:29.664Z,0.88
2022-12-13T04:03:02.123Z,0.89
2022-12-13T04:05:32.862Z,0.93
2022-12-13T04:08:05.252Z,0.87
2022-12-13T04:10:54.711Z,0.86
2022-12-13T04:13:35.897Z,0.83
2022-12-13T04:16:09.249Z,0.88
2022-12-13T04:18:41.924Z,0.95
2022-12-13T04:21:14.227Z,1.01
2022-12-13T04:23:46.465Z,0.95
2022-12-13T04:26:18.812Z,0.90
2022-12-13T04:28:54.675Z,0.88
2022-12-13T04:31:27.277Z,0.84
2022-12-13T04:34:02.407Z,0.80
2022-12-13T04:36:36.813Z,0.77
2022-12-13T04:39:22.135Z,0.85
2022-12-13T04:41:56.365Z,0.93
2022-12-13T04:44:32.639Z,0.99
2022-12-13T04:47:08.890Z,0.98
2022-12-13T04:49:41.358Z,0.91
2022-12-13T04:52:14.247Z,0.88
2022-12-13T04:54:55.532Z,0.91
2022-12-13T04:57:28.626Z,0.89
2022-12-13T05:00:00.904Z,0.88
2022-12-13T05:02:33.550Z,0.92
2022-12-13T05:05:06.719Z,0.91
2022-12-13T05:07:42.416Z,0.91
2022-12-13T05:10:33.905Z,0.90
2022-12-13T05:13:08.309Z,0.91
2022-12-13T05:15:40.532Z,0.92
2022-12-13T05:18:13.356Z,0.97
2022-12-13T05:20:45.551Z,0.99
2022-12-13T05:23:22.709Z,0.99
2022-12-13T05:26:12.755Z,0.90
2022-12-13T05:28:45.036Z,0.85
2022-12-13T05:31:22.910Z,0.75
2022-12-13T05:34:01.529Z,0.71
2022-12-13T05:36:34.271Z,0.72
2022-12-13T05:39:06.619Z,0.67
2022-12-13T05:42:02.398Z,0.58
2022-12-13T05:44:36.489Z,0.49
2022-12-13T05:47:07.168Z,0.51
2022-12-13T05:49:39.523Z,0.45
2022-12-13T05:52:19.721Z,0.49
2022-12-13T05:54:55.269Z,0.55
2022-12-13T05:57:34.164Z,0.58
2022-12-13T06:00:30.167Z,0.61
2022-12-13T06:03:02.059Z,0.66
2022-12-13T06:05:34.844Z,0.71
2022-12-13T06:08:25.585Z,0.73
2022-12-13T06:11:11.507Z,0.79
2022-12-13T06:13:45.717Z,0.92
2022-12-13T06:16:22.754Z,1.00
2022-12-13T06:19:03.611Z,1.00
2022-12-13T06:21:44.201Z,1.05
2022-12-13T06:24:20.228Z,1.16
2022-12-13T06:26:53.024Z,1.18
2022-12-13T06:29:26.160Z,1.16
2022-12-13T06:32:02.543Z,1.19
2022-12-13T06:34:36.841Z,1.24
2022-12-13T06:37:13.016Z,1.31
2022-12-13T06:39:45.370Z,1.39
2022-12-13T06:42:21.664Z,1.47
2022-12-13T06:44:55.893Z,1.55
2022-12-13T06:47:31.669Z,1.53
2022-12-13T06:50:06.017Z,1.50
2022-12-13T06:52:39.061Z,1.52
2022-12-13T06:55:12.382Z,1.55
2022-12-13T06:57:45.157Z,1.55
2022-12-13T07:00:21.908Z,1.54
2022-12-13T07:02:57.655Z,1.55
2022-12-13T07:05:30.018Z,1.55
2022-12-13T07:08:02.435Z,1.57
2022-12-13T07:10:35.519Z,1.59
2022-12-13T07:13:07.889Z,1.65
2022-12-13T07:15:40.335Z,1.64
2022-12-13T07:18:12.784Z,1.66
2022-12-13T07:20:45.792Z,1.70
2022-12-13T07:23:19.189Z,1.68
2022-12-13T07:25:58.164Z,1.63
2022-12-13T07:28:30.542Z,1.55
2022-12-13T07:31:05.406Z,1.54
2022-12-13T07:33:38.357Z,1.56
2022-12-13T07:36:13.275Z,1.60
2022-12-13T07:38:46.073Z,1.61
2022-12-13T07:41:23.353Z,1.64
2022-12-13T07:43:56.998Z,1.56
2022-12-13T07:46:33.210Z,1.60
2022-12-13T07:49:07.325Z,1.70
2022-12-13T07:51:39.718Z,1.80
2022-12-13T07:54:12.340Z,1.89
2022-12-13T07:56:42.991Z,1.97
2022-12-13T07:59:15.537Z,1.99
2022-12-13T08:01:48.219Z,2.07
2022-12-13T08:04:23.378Z,2.12
2022-12-13T08:07:13.748Z,2.19
2022-12-13T08:09:51.246Z,2.21
2022-12-13T08:12:25.435Z,2.19
2022-12-13T08:14:57.745Z,2.20
2022-12-13T08:17:31.179Z,2.20
2022-12-13T08:20:04.144Z,2.20
2022-12-13T08:22:36.393Z,2.19
2022-12-13T08:25:09.718Z,2.18
2022-12-13T08:27:42.898Z,2.19
2022-12-13T08:30:22.758Z,2.19
2022-12-13T08:32:56.068Z,2.15
2022-12-13T08:35:45.867Z,2.06
2022-12-13T08:38:22.935Z,2.01
2022-12-13T08:40:55.803Z,1.90
2022-12-13T08:43:28.075Z,1.81
2022-12-13T08:46:01.239Z,1.76
2022-12-13T08:48:34.569Z,1.74
2022-12-13T08:51:09.989Z,1.71
2022-12-13T08:54:10.726Z,1.66
2022-12-13T08:56:44.764Z,1.67
2022-12-13T08:59:18.274Z,1.68
2022-12-13T09:01:54.205Z,1.69
2022-12-13T09:04:31.584Z,1.71
2022-12-13T09:07:04.918Z,1.70
2022-12-13T09:09:37.442Z,1.73
2022-12-13T09:12:29.680Z,1.76
2022-12-13T09:15:02.587Z,1.80
2022-12-13T09:17:37.244Z,1.85
2022-12-13T09:20:28.717Z,1.87
2022-12-13T09:23:06.275Z,1.94
2022-12-13T09:25:52.770Z,1.97
2022-12-13T09:28:26.438Z,1.95
2022-12-13T09:30:58.913Z,2.05
2022-12-13T09:33:31.410Z,2.23
2022-12-13T09:36:05.944Z,2.39
2022-12-13T09:38:39.134Z,2.45
2022-12-13T09:41:31.952Z,2.56
2022-12-13T09:44:32.949Z,2.63
2022-12-13T09:47:03.614Z,2.58
2022-12-13T09:49:38.421Z,2.58
2022-12-13T09:52:33.456Z,2.69
2022-12-13T09:55:16.469Z,2.80
2022-12-13T09:57:49.567Z,2.92
2022-12-13T10:00:24.248Z,3.05
2022-12-13T10:02:58.774Z,3.33
2022-12-13T10:05:34.617Z,3.61
2022-12-13T10:08:15.724Z,3.96
2022-12-13T10:10:48.272Z,4.33
2022-12-13T10:13:20.418Z,4.64
2022-12-13T10:15:56.657Z,4.97
2022-12-13T10:18:35.264Z,5.32
2022-12-13T10:21:11.625Z,5.52
2022-12-13T10:24:22.664Z,5.68
2022-12-13T10:26:40.495Z,5.77
2022-12-13T10:29:12.968Z,5.81
2022-12-13T10:31:47.093Z,5.76
2022-12-13T10:34:28.572Z,5.57
2022-12-13T10:37:02.351Z,5.35
2022-12-13T10:39:42.922Z,5.31
2022-12-13T10:42:22.520Z,5.26
2022-12-13T10:45:16.012Z,5.14
2022-12-13T10:48:03.731Z,4.98
2022-12-13T10:51:05.656Z,4.80
2022-12-13T10:53:46.982Z,4.72
2022-12-13T10:56:26.204Z,4.66
2022-12-13T10:59:21.127Z,4.57
2022-12-13T11:01:53.486Z,4.62
2022-12-13T11:04:29.349Z,4.61
2022-12-13T11:07:03.176Z,4.55
2022-12-13T11:09:39.033Z,4.58
2022-12-13T11:12:19.260Z,4.54
2022-12-13T11:14:56.681Z,4.53
2022-12-13T11:17:29.744Z,4.58
2022-12-13T11:20:04.875Z,4.53
2022-12-13T11:22:38.735Z,4.44
2022-12-13T11:25:30.068Z,4.47
2022-12-13T11:28:26.369Z,4.51
2022-12-13T11:31:07.416Z,4.52
2022-12-13T11:33:48.287Z,4.70
2022-12-13T11:36:28.804Z,4.96
2022-12-13T11:39:12.591Z,5.19
2022-12-13T11:41:50.486Z,5.44
2022-12-13T11:44:27.673Z,5.83
2022-12-13T11:47:01.455Z,6.19
2022-12-13T11:49:40.489Z,6.54
2022-12-13T11:52:19.479Z,6.80
2022-12-13T11:54:53.751Z,6.76
2022-12-13T11:57:39.827Z,6.82
2022-12-13T12:00:34.382Z,6.93
2022-12-13T12:03:19.709Z,6.97
2022-12-13T12:05:55.969Z,6.78
2022-12-13T12:08:37.786Z,6.50
2022-12-13T12:11:16.310Z,6.25
2022-12-13T12:13:52.613Z,6.05
2022-12-13T12:16:34.353Z,6.01
2022-12-13T12:19:13.102Z,5.95
2022-12-13T12:22:15.864Z,5.83
2022-12-13T12:25:05.893Z,5.71
2022-12-13T12:27:47.246Z,5.62
2022-12-13T12:30:24.311Z,5.48
2022-12-13T12:33:04.258Z,5.49
2022-12-13T12:36:14.674Z,5.56
2022-12-13T12:39:07.428Z,5.54
2022-12-13T12:41:49.477Z,5.41
2022-12-13T12:44:32.252Z,5.35
2022-12-13T12:47:46.371Z,5.38
2022-12-13T12:50:20.252Z,5.43
2022-12-13T12:53:04.636Z,5.45
2022-12-13T12:55:50.281Z,5.49
2022-12-13T12:58:32.939Z,5.52
2022-12-13T13:01:08.221Z,5.54
2022-12-13T13:03:42.816Z,5.52
2022-12-13T13:06:17.860Z,5.41
2022-12-13T13:08:56.904Z,5.32
2022-12-13T13:11:33.302Z,5.20
2022-12-13T13:14:10.574Z,5.14
2022-12-13T13:16:43.947Z,5.10
2022-12-13T13:19:46.327Z,5.09
2022-12-13T13:29:43.632Z,5.15
2022-12-13T13:32:30.364Z,5.07
2022-12-13T13:35:33.446Z,4.99
2022-12-13T13:38:09.870Z,4.89
2022-12-13T13:40:43.339Z,4.82
2022-12-13T13:43:20.087Z,4.80
2022-12-13T13:46:01.547Z,4.69
2022-12-13T13:48:50.661Z,4.51
2022-12-13T13:55:19.638Z,4.26
2022-12-13T13:58:31.126Z,4.19
2022-12-13T14:01:37.915Z,4.11
2022-12-13T14:04:49.343Z,4.10
2022-12-13T14:07:54.937Z,4.07
2022-12-13T14:10:36.041Z,4.08
2022-12-13T14:13:46.244Z,4.08
2022-12-13T14:19:56.583Z,4.10
2022-12-13T14:22:38.301Z,4.04
2022-12-13T14:25:40.181Z,3.94
2022-12-13T14:28:18.660Z,3.86
2022-12-13T14:30:57.436Z,3.87
2022-12-13T14:33:30.337Z,3.91
2022-12-13T14:36:04.449Z,3.95
2022-12-13T14:38:36.825Z,3.93
2022-12-13T14:41:16.815Z,3.89
2022-12-13T14:43:50.299Z,3.89
2022-12-13T14:46:22.696Z,3.90
2022-12-13T14:48:56.174Z,3.90
2022-12-13T14:51:36.137Z,3.90
2022-12-13T14:54:10.134Z,3.94
2022-12-13T14:56:57.173Z,3.98
2022-12-13T14:59:30.711Z,4.03
2022-12-13T15:02:09.121Z,4.08
2022-12-13T15:04:42.876Z,4.08
2022-12-13T15:07:22.857Z,4.10
2022-12-13T15:09:57.312Z,4.12
2022-12-13T15:12:30.370Z,4.13
2022-12-13T15:15:04.548Z,4.13
2022-12-13T15:17:40.816Z,4.15
2022-12-13T15:20:27.924Z,4.15
2022-12-13T15:23:03.426Z,4.16
2022-12-13T15:25:37.666Z,4.12
2022-12-13T15:28:10.836Z,4.12
2022-12-13T15:30:43.636Z,4.14
2022-12-13T15:33:30.694Z,4.14
2022-12-13T15:36:09.717Z,4.10
2022-12-13T15:38:49.993Z,4.11
2022-12-13T15:41:24.381Z,4.12
2022-12-13T15:43:59.601Z,4.12
2022-12-13T15:46:38.153Z,4.10
2022-12-13T15:49:23.821Z,4.02
2022-12-13T15:52:00.500Z,3.92
2022-12-13T15:54:33.117Z,3.87
2022-12-13T15:57:16.010Z,3.80
2022-12-13T15:59:48.386Z,3.61
2022-12-13T16:02:24.416Z,3.55
2022-12-13T16:04:57.909Z,3.48
2022-12-13T16:07:35.841Z,3.41
2022-12-13T16:10:11.335Z,3.34
2022-12-13T16:12:49.555Z,3.31
2022-12-13T16:15:29.092Z,3.27
2022-12-13T16:18:14.586Z,3.25
2022-12-13T16:20:47.838Z,3.20
2022-12-13T16:23:27.229Z,3.10
2022-12-13T16:26:04.299Z,3.08
2022-12-13T16:28:39.435Z,3.02
2022-12-13T16:31:17.710Z,2.97
2022-12-13T16:33:49.958Z,2.98
2022-12-13T16:36:22.623Z,2.99
2022-12-13T16:38:53.151Z,2.99
2022-12-13T16:41:26.290Z,2.96
2022-12-13T16:44:00.416Z,2.97
2022-12-13T16:47:14.383Z,2.96
2022-12-13T16:49:29.157Z,2.95
2022-12-13T16:52:04.877Z,2.91
2022-12-13T16:54:37.727Z,2.88
2022-12-13T16:57:13.500Z,2.87
2022-12-13T16:59:45.706Z,2.85
2022-12-13T17:02:19.765Z,2.84
2022-12-13T17:04:53.976Z,2.80
2022-12-13T17:07:26.348Z,2.75
2022-12-13T17:09:59.590Z,2.69
2022-12-13T17:12:32.372Z,2.65
2022-12-13T17:15:05.136Z,2.56
2022-12-13T17:17:37.241Z,2.48
2022-12-13T17:20:16.388Z,2.43
2022-12-13T17:22:52.433Z,2.43
2022-12-13T17:25:27.973Z,2.42
2022-12-13T17:28:04.920Z,2.42
2022-12-13T17:30:38.568Z,2.45
2022-12-13T17:33:13.453Z,2.48
2022-12-13T17:35:47.364Z,2.51
2022-12-13T17:38:19.729Z,2.53
2022-12-13T17:40:55.356Z,2.57
2022-12-13T17:43:34.245Z,2.61
2022-12-13T17:46:08.997Z,2.64
2022-12-13T17:48:43.794Z,2.65
2022-12-13T17:51:19.238Z,2.65
2022-12-13T17:53:53.143Z,2.66
2022-12-13T17:56:26.176Z,2.72
2022-12-13T17:59:00.127Z,2.78
2022-12-13T18:01:35.238Z,2.80
2022-12-13T18:04:12.858Z,2.81
2022-12-13T18:06:48.832Z,2.80
2022-12-13T18:09:21.589Z,2.82
2022-12-13T18:11:54.355Z,2.86
2022-12-13T18:14:30.426Z,2.92
2022-12-13T18:17:02.632Z,2.97
2022-12-13T18:19:36.724Z,3.01
2022-12-13T18:22:09.056Z,3.04
2022-12-13T18:24:44.050Z,3.07
2022-12-13T18:27:16.563Z,3.12
2022-12-13T18:29:55.133Z,3.16
2022-12-13T18:32:31.083Z,3.15
2022-12-13T18:35:04.795Z,3.12
2022-12-13T18:37:37.043Z,3.06
2022-12-13T18:40:11.083Z,3.07
2022-12-13T18:42:44.216Z,3.08
2022-12-13T18:45:15.912Z,3.09
2022-12-13T18:47:49.044Z,3.07
2022-12-13T18:50:21.234Z,3.05
2022-12-13T18:52:53.369Z,3.02
2022-12-13T18:55:25.642Z,3.03
2022-12-13T18:57:57.785Z,3.03
2022-12-13T19:00:30.032Z,3.04
2022-12-13T19:03:03.818Z,3.06
2022-12-13T19:05:36.528Z,3.08
2022-12-13T19:08:08.967Z,3.08
2022-12-13T19:10:41.919Z,3.10
2022-12-13T19:13:14.126Z,3.10
2022-12-13T19:15:46.362Z,3.06
2022-12-13T19:18:18.676Z,3.05
2022-12-13T19:20:51.596Z,3.04
2022-12-13T19:23:24.508Z,3.03
2022-12-13T19:25:56.858Z,3.04
2022-12-13T19:28:29.030Z,3.08
2022-12-13T19:31:02.016Z,3.14
2022-12-13T19:33:34.413Z,3.18
2022-12-13T19:36:08.991Z,3.15
2022-12-13T19:38:42.275Z,3.15
2022-12-13T19:41:15.915Z,3.07
2022-12-13T19:43:52.986Z,2.96
2022-12-13T19:46:25.880Z,2.87
2022-12-13T19:48:58.239Z,2.82
2022-12-13T19:51:35.920Z,2.75
2022-12-13T19:54:14.686Z,2.73
2022-12-13T19:56:48.049Z,2.68
2022-12-13T19:59:20.451Z,2.63
2022-12-13T20:01:53.000Z,2.63
2022-12-13T20:04:25.865Z,2.68
2022-12-13T20:06:58.457Z,2.71
2022-12-13T20:09:30.928Z,2.74
2022-12-13T20:12:03.168Z,2.76
2022-12-13T20:14:35.507Z,2.73
2022-12-13T20:17:08.281Z,2.69
2022-12-13T20:19:41.219Z,2.71
2022-12-13T20:22:13.418Z,2.72
2022-12-13T20:24:46.216Z,2.72
2022-12-13T20:27:20.590Z,2.68
2022-12-13T20:29:51.157Z,2.67
2022-12-13T20:32:25.542Z,2.60
2022-12-13T20:34:57.876Z,2.59
2022-12-13T20:37:30.938Z,2.62
2022-12-13T20:40:03.415Z,2.62
2022-12-13T20:42:36.879Z,2.58
2022-12-13T20:45:12.246Z,2.59
2022-12-13T20:47:44.951Z,2.64
2022-12-13T20:50:17.179Z,2.66
2022-12-13T20:52:50.859Z,2.71
2022-12-13T20:55:23.267Z,2.76
2022-12-13T20:57:55.480Z,2.80
2022-12-13T21:00:27.978Z,2.85
2022-12-13T21:03:00.188Z,2.86
2022-12-13T21:05:32.975Z,2.89
2022-12-13T21:08:22.594Z,2.95
2022-12-13T21:10:54.824Z,2.93
2022-12-13T21:13:27.423Z,2.90
2022-12-13T21:16:08.332Z,2.90
2022-12-13T21:18:40.570Z,2.82
2022-12-13T21:21:12.990Z,2.72
2022-12-13T21:23:45.095Z,2.63
2022-12-13T21:26:18.240Z,2.61
2022-12-13T21:28:52.608Z,2.59
2022-12-13T21:31:25.218Z,2.61
2022-12-13T21:33:56.338Z,2.65
2022-12-13T21:36:30.358Z,2.67
2022-12-13T21:39:03.994Z,2.73
2022-12-13T21:41:36.230Z,2.77
2022-12-13T21:44:08.858Z,2.82
2022-12-13T21:49:31.538Z,2.85
2022-12-13T21:52:03.761Z,2.89
2022-12-13T21:54:35.981Z,2.89
2022-12-13T21:57:31.220Z,2.84
2022-12-13T22:00:03.978Z,2.80
2022-12-13T22:02:36.127Z,2.82
2022-12-13T22:05:10.161Z,2.90
2022-12-13T22:07:42.271Z,2.97
2022-12-13T22:10:14.509Z,3.00
2022-12-13T22:12:46.643Z,3.02
2022-12-13T22:15:18.835Z,3.06
2022-12-13T22:17:51.000Z,3.14
2022-12-13T22:20:23.215Z,3.22
2022-12-13T22:22:55.550Z,3.29
2022-12-13T22:25:28.032Z,3.31
2022-12-13T22:28:00.466Z,3.27
2022-12-13T22:30:33.964Z,3.29
2022-12-13T22:33:06.267Z,3.27
2022-12-13T22:35:40.354Z,3.21
2022-12-13T22:38:12.592Z,3.09
2022-12-13T22:40:44.798Z,3.03
2022-12-13T22:43:20.542Z,3.00
2022-12-13T22:45:53.187Z,2.96
2022-12-13T22:48:25.752Z,2.89
2022-12-13T22:51:02.165Z,2.84
2022-12-13T22:53:34.392Z,2.81
2022-12-13T22:56:11.771Z,2.82
2022-12-13T22:58:44.187Z,2.85
2022-12-13T23:01:18.422Z,2.86
2022-12-13T23:03:50.808Z,2.87
2022-12-13T23:06:24.658Z,2.88
2022-12-13T23:08:58.587Z,2.87
2022-12-13T23:11:48.508Z,2.92
2022-12-13T23:14:22.471Z,2.98
2022-12-13T23:16:54.655Z,3.09
2022-12-13T23:19:50.903Z,3.19
2022-12-13T23:22:20.995Z,3.25
2022-12-13T23:24:55.291Z,3.32
2022-12-13T23:27:31.048Z,3.37
2022-12-13T23:30:03.266Z,3.41
2022-12-13T23:32:36.249Z,3.40
2022-12-13T23:35:12.632Z,3.36
2022-12-13T23:37:46.269Z,3.29
2022-12-13T23:40:21.902Z,3.27
2022-12-13T23:42:55.207Z,3.27
2022-12-13T23:45:28.671Z,3.26
2022-12-13T23:48:00.901Z,3.20
2022-12-13T23:50:34.407Z,3.18
2022-12-13T23:53:07.024Z,3.14
2022-12-13T23:55:40.281Z,3.12
